createdAt,value
2022-12-29T00:00:10.336Z,101335.56
2022-12-29T00:03:06.825Z,101326.34
2022-12-29T00:05:40.801Z,101313.11
2022-12-29T00:08:13.769Z,101337.43
2022-12-29T00:10:46.604Z,101356.13
2022-12-29T00:13:37.642Z,101348.08
2022-12-29T00:16:11.584Z,101339.14
2022-12-29T00:18:44.307Z,101329.67
2022-12-29T00:21:40.771Z,101317.45
2022-12-29T00:24:29.152Z,101309.05
2022-12-29T00:27:25.763Z,101322.66
2022-12-29T00:30:17.523Z,101327.02
2022-12-29T00:33:09.171Z,101321.95
2022-12-29T00:35:48.960Z,101309.05
2022-12-29T00:38:41.780Z,101323.89
2022-12-29T00:41:33.440Z,101318.83
2022-12-29T00:44:08.134Z,101312.21
2022-12-29T00:46:43.599Z,101295.64
2022-12-29T00:49:35.733Z,101298.77
2022-12-29T00:52:12.925Z,101293.70
2022-12-29T00:54:46.227Z,101277.66
2022-12-29T00:57:18.868Z,101283.64
2022-12-29T00:59:51.508Z,101289.06
2022-12-29T01:02:24.453Z,101288.55
2022-12-29T01:04:57.205Z,101299.36
2022-12-29T01:07:29.817Z,101296.75
2022-12-29T01:10:16.178Z,101296.42
2022-12-29T01:12:50.616Z,101280.85
2022-12-29T01:15:23.749Z,101269.87
2022-12-29T01:17:56.490Z,101265.36
2022-12-29T01:20:30.177Z,101248.73
2022-12-29T01:23:03.377Z,101272.80
2022-12-29T01:25:36.045Z,101276.46
2022-12-29T01:28:09.628Z,101262.13
2022-12-29T01:30:42.302Z,101268.77
2022-12-29T01:33:15.017Z,101265.79
2022-12-29T01:35:47.662Z,101251.13
2022-12-29T01:38:20.483Z,101260.90
2022-12-29T01:40:53.208Z,101261.95
2022-12-29T01:43:44.173Z,101270.33
2022-12-29T01:46:31.274Z,101267.88
2022-12-29T01:49:21.636Z,101247.11
2022-12-29T01:52:09.345Z,101258.29
2022-12-29T01:54:50.679Z,101239.46
2022-12-29T01:57:33.093Z,101230.73
2022-12-29T02:00:10.753Z,101248.74
2022-12-29T02:02:50.761Z,101233.23
2022-12-29T02:05:34.021Z,101223.09
2022-12-29T02:08:06.957Z,101222.73
2022-12-29T02:10:42.011Z,101236.69
2022-12-29T02:13:14.760Z,101244.55
2022-12-29T02:16:27.083Z,101237.71
2022-12-29T02:19:26.832Z,101237.86
2022-12-29T02:22:32.700Z,101228.59
2022-12-29T02:25:04.949Z,101233.45
2022-12-29T02:28:13.509Z,101229.77
2022-12-29T02:30:59.498Z,101228.00
2022-12-29T02:34:15.441Z,101226.42
2022-12-29T02:36:53.915Z,101209.30
2022-12-29T02:39:44.079Z,101216.10
2022-12-29T02:43:00.183Z,101215.75
2022-12-29T02:45:40.407Z,101225.76
2022-12-29T02:48:32.776Z,101235.23
2022-12-29T02:51:10.247Z,101237.02
2022-12-29T02:54:07.275Z,101233.52
2022-12-29T02:56:40.209Z,101230.20
2022-12-29T02:59:14.859Z,101229.00
2022-12-29T03:02:19.131Z,101224.29
2022-12-29T03:05:20.422Z,101222.89
2022-12-29T03:08:09.900Z,101221.30
2022-12-29T03:11:05.011Z,101217.79
2022-12-29T03:14:06.819Z,101200.33
2022-12-29T03:16:48.656Z,101224.04
2022-12-29T03:19:45.628Z,101208.31
2022-12-29T03:22:32.604Z,101198.69
2022-12-29T03:25:33.136Z,101216.65
2022-12-29T03:28:15.226Z,101219.79
2022-12-29T03:30:50.672Z,101218.91
2022-12-29T03:33:31.489Z,101211.93
2022-12-29T03:36:10.126Z,101209.50
2022-12-29T03:39:13.523Z,101217.02
2022-12-29T03:41:49.240Z,101225.44
2022-12-29T03:44:22.362Z,101213.59
2022-12-29T03:46:55.227Z,101205.20
2022-12-29T03:49:28.042Z,101209.41
2022-12-29T03:52:00.731Z,101192.52
2022-12-29T03:54:34.527Z,101194.45
2022-12-29T03:57:07.752Z,101211.93
2022-12-29T03:59:53.325Z,101222.06
2022-12-29T04:02:26.722Z,101210.19
2022-12-29T04:04:59.996Z,101201.60
2022-12-29T04:07:33.688Z,101190.60
2022-12-29T04:10:08.837Z,101193.04
2022-12-29T04:12:43.180Z,101194.25
2022-12-29T04:15:16.486Z,101191.45
2022-12-29T04:17:51.372Z,101191.08
2022-12-29T04:20:43.087Z,101188.27
2022-12-29T04:23:16.259Z,101186.33
2022-12-29T04:25:52.206Z,101187.73
2022-12-29T04:28:25.225Z,101174.84
2022-12-29T04:31:04.383Z,101185.65
2022-12-29T04:33:44.241Z,101184.96
2022-12-29T04:36:17.191Z,101191.96
2022-12-29T04:38:51.847Z,101175.92
2022-12-29T04:41:26.039Z,101164.41
2022-12-29T04:43:59.943Z,101170.33
2022-12-29T04:46:52.633Z,101166.84
2022-12-29T04:49:50.770Z,101171.59
2022-12-29T04:52:44.261Z,101174.77
2022-12-29T04:55:19.795Z,101171.81
2022-12-29T04:57:52.576Z,101198.52
2022-12-29T05:00:26.628Z,101201.67
2022-12-29T05:02:59.666Z,101197.98
2022-12-29T05:05:33.479Z,101188.39
2022-12-29T05:08:07.617Z,101200.27
2022-12-29T05:10:41.312Z,101205.50
2022-12-29T05:13:18.119Z,101208.63
2022-12-29T05:15:55.922Z,101214.57
2022-12-29T05:18:30.433Z,101218.95
2022-12-29T05:21:05.407Z,101215.62
2022-12-29T05:23:38.250Z,101220.34
2022-12-29T05:26:12.252Z,101225.41
2022-12-29T05:29:19.280Z,101203.98
2022-12-29T05:31:52.874Z,101219.52
2022-12-29T05:34:26.713Z,101239.42
2022-12-29T05:37:00.073Z,101238.04
2022-12-29T05:39:33.166Z,101242.95
2022-12-29T05:42:08.701Z,101228.98
2022-12-29T05:44:59.536Z,101219.73
2022-12-29T05:48:00.485Z,101227.79
2022-12-29T05:50:51.706Z,101215.75
2022-12-29T05:53:32.245Z,101228.48
2022-12-29T05:56:07.710Z,101240.53
2022-12-29T05:58:41.187Z,101232.16
2022-12-29T06:01:14.202Z,101242.28
2022-12-29T06:03:48.608Z,101229.36
2022-12-29T06:06:22.537Z,101248.23
2022-12-29T06:08:55.974Z,101249.44
2022-12-29T06:11:30.809Z,101239.16
2022-12-29T06:14:05.235Z,101236.36
2022-12-29T06:16:39.547Z,101237.75
2022-12-29T06:19:16.342Z,101252.59
2022-12-29T06:21:50.586Z,101245.79
2022-12-29T06:24:24.173Z,101237.23
2022-12-29T06:26:56.990Z,101247.70
2022-12-29T06:29:30.417Z,101248.05
2022-12-29T06:32:04.145Z,101247.18
2022-12-29T06:34:39.598Z,101249.81
2022-12-29T06:37:13.482Z,101253.65
2022-12-29T06:39:47.199Z,101250.34
2022-12-29T06:42:21.384Z,101246.66
2022-12-29T06:45:30.462Z,101244.38
2022-12-29T06:48:04.207Z,101247.35
2022-12-29T06:50:37.433Z,101243.84
2022-12-29T06:53:10.438Z,101233.70
2022-12-29T06:55:44.562Z,101234.21
2022-12-29T06:58:17.448Z,101242.92
2022-12-29T07:00:51.066Z,101241.52
2022-12-29T07:03:24.525Z,101235.73
2022-12-29T07:05:59.696Z,101236.91
2022-12-29T07:08:32.751Z,101235.66
2022-12-29T07:11:06.010Z,101237.05
2022-12-29T07:13:39.134Z,101230.55
2022-12-29T07:16:12.676Z,101230.88
2022-12-29T07:18:45.757Z,101227.70
2022-12-29T07:21:19.230Z,101228.91
2022-12-29T07:23:53.055Z,101233.79
2022-12-29T07:26:26.867Z,101236.94
2022-12-29T07:29:02.748Z,101240.61
2022-12-29T07:31:36.046Z,101245.85
2022-12-29T07:34:11.036Z,101250.21
2022-12-29T07:36:44.392Z,101251.94
2022-12-29T07:39:17.570Z,101251.91
2022-12-29T07:41:50.808Z,101254.34
2022-12-29T07:44:25.818Z,101239.48
2022-12-29T07:47:20.552Z,101248.35
2022-12-29T07:49:54.430Z,101261.59
2022-12-29T07:52:27.688Z,101262.58
2022-12-29T07:55:00.909Z,101259.54
2022-12-29T07:57:34.251Z,101261.41
2022-12-29T08:00:07.516Z,101246.33
2022-12-29T08:02:45.512Z,101257.61
2022-12-29T08:05:18.610Z,101262.84
2022-12-29T08:07:51.900Z,101250.79
2022-12-29T08:10:24.920Z,101247.96
2022-12-29T08:12:58.396Z,101260.50
2022-12-29T08:15:32.728Z,101264.00
2022-12-29T08:18:07.605Z,101264.35
2022-12-29T08:20:40.537Z,101261.19
2022-12-29T08:23:13.895Z,101258.02
2022-12-29T08:25:46.890Z,101248.27
2022-12-29T08:28:19.723Z,101252.73
2022-12-29T08:30:52.981Z,101243.58
2022-12-29T08:33:25.611Z,101228.88
2022-12-29T08:36:09.611Z,101223.57
2022-12-29T08:38:42.606Z,101228.83
2022-12-29T08:41:15.812Z,101207.06
2022-12-29T08:43:52.404Z,101210.56
2022-12-29T08:46:25.285Z,101211.11
2022-12-29T08:49:00.629Z,101201.55
2022-12-29T08:51:33.576Z,101197.05
2022-12-29T08:54:06.407Z,101197.36
2022-12-29T08:56:39.792Z,101195.66
2022-12-29T08:59:12.699Z,101188.40
2022-12-29T09:01:46.164Z,101191.43
2022-12-29T09:04:19.060Z,101185.57
2022-12-29T09:06:52.309Z,101162.20
2022-12-29T09:09:25.833Z,101184.23
2022-12-29T09:11:58.543Z,101183.30
2022-12-29T09:14:31.508Z,101172.09
2022-12-29T09:17:22.727Z,101166.09
2022-12-29T09:19:55.734Z,101157.45
2022-12-29T09:22:28.706Z,101156.47
2022-12-29T09:25:01.478Z,101155.73
2022-12-29T09:27:35.224Z,101152.89
2022-12-29T09:30:10.039Z,101150.37
2022-12-29T09:32:45.461Z,101144.47
2022-12-29T09:35:19.928Z,101145.40
2022-12-29T09:37:53.084Z,101150.73
2022-12-29T09:40:36.512Z,101152.02
2022-12-29T09:43:41.103Z,101148.51
2022-12-29T09:46:32.184Z,101139.21
2022-12-29T09:49:41.364Z,101127.14
2022-12-29T09:52:36.995Z,101127.58
2022-12-29T09:55:22.171Z,101120.19
2022-12-29T09:58:06.929Z,101134.23
2022-12-29T10:00:55.401Z,101130.56
2022-12-29T10:03:39.222Z,101133.73
2022-12-29T10:06:25.323Z,101145.45
2022-12-29T10:09:33.957Z,101138.73
2022-12-29T10:12:56.063Z,101131.81
2022-12-29T10:15:56.781Z,101102.14
2022-12-29T10:18:49.253Z,101128.48
2022-12-29T10:21:36.269Z,101117.32
2022-12-29T10:24:14.358Z,101118.85
2022-12-29T10:26:49.535Z,101093.18
2022-12-29T10:29:33.788Z,101107.16
2022-12-29T10:32:36.146Z,101107.19
2022-12-29T10:35:25.118Z,101096.64
2022-12-29T10:38:19.008Z,101079.34
2022-12-29T10:41:06.512Z,101082.17
2022-12-29T10:43:50.597Z,101093.11
2022-12-29T10:46:31.321Z,101086.27
2022-12-29T10:49:04.840Z,101083.55
2022-12-29T10:51:46.641Z,101088.34
2022-12-29T10:54:54.361Z,101087.16
2022-12-29T10:57:31.433Z,101077.81
2022-12-29T11:00:06.032Z,101074.52
2022-12-29T11:02:56.580Z,101073.19
2022-12-29T11:05:36.599Z,101075.18
2022-12-29T11:08:15.991Z,101059.61
2022-12-29T11:11:01.002Z,101056.67
2022-12-29T11:13:39.144Z,101066.30
2022-12-29T11:16:15.831Z,101059.95
2022-12-29T11:18:50.640Z,101054.04
2022-12-29T11:21:41.846Z,101049.90
2022-12-29T11:24:28.877Z,101045.81
2022-12-29T11:27:34.674Z,101042.45
2022-12-29T11:30:27.969Z,101035.29
2022-12-29T11:33:06.027Z,101032.52
2022-12-29T11:35:43.421Z,101017.28
2022-12-29T11:38:37.148Z,101025.83
2022-12-29T11:41:15.071Z,101016.57
2022-12-29T11:43:48.935Z,101014.14
2022-12-29T11:46:36.787Z,101004.02
2022-12-29T11:49:16.024Z,101017.86
2022-12-29T11:51:52.350Z,101007.86
2022-12-29T11:54:39.692Z,101018.88
2022-12-29T11:57:18.984Z,101012.81
2022-12-29T11:59:56.741Z,100999.45
2022-12-29T12:02:44.265Z,101016.46
2022-12-29T12:05:54.353Z,101004.59
2022-12-29T12:08:42.142Z,101003.22
2022-12-29T12:11:38.741Z,101016.44
2022-12-29T12:14:24.066Z,101018.07
2022-12-29T12:17:39.052Z,101022.23
2022-12-29T12:20:29.449Z,101022.30
2022-12-29T12:23:35.170Z,101012.25
2022-12-29T12:26:24.540Z,101009.59
2022-12-29T12:29:00.051Z,101010.27
2022-12-29T12:31:35.745Z,101006.68
2022-12-29T12:34:14.322Z,100994.15
2022-12-29T12:37:11.134Z,100996.66
2022-12-29T12:40:01.973Z,101006.18
2022-12-29T12:42:53.785Z,100989.65
2022-12-29T12:45:41.708Z,100994.42
2022-12-29T12:48:41.065Z,100991.83
2022-12-29T12:51:32.988Z,100988.78
2022-12-29T12:54:29.700Z,100987.38
2022-12-29T12:57:04.581Z,100983.92
2022-12-29T12:59:52.455Z,100970.42
2022-12-29T13:02:46.900Z,100976.02
2022-12-29T13:05:27.937Z,100974.86
2022-12-29T13:08:29.883Z,100963.94
2022-12-29T13:11:38.846Z,100940.17
2022-12-29T13:14:35.029Z,100962.77
2022-12-29T13:17:30.259Z,100954.97
2022-12-29T13:20:20.639Z,100944.95
2022-12-29T13:23:30.909Z,100964.34
2022-12-29T13:26:10.375Z,100968.70
2022-12-29T13:29:20.997Z,100963.14
2022-12-29T13:31:58.977Z,100980.89
2022-12-29T13:34:50.877Z,100985.08
2022-12-29T13:37:29.867Z,100972.08
2022-12-29T13:40:14.869Z,100980.71
2022-12-29T13:42:50.184Z,100980.77
2022-12-29T13:45:31.933Z,100980.19
2022-12-29T13:48:10.087Z,100980.69
2022-12-29T13:50:44.144Z,100964.76
2022-12-29T13:53:16.725Z,100982.66
2022-12-29T13:55:56.351Z,100990.17
2022-12-29T13:58:41.998Z,100988.13
2022-12-29T14:01:22.496Z,100985.29
2022-12-29T14:03:58.136Z,100992.69
2022-12-29T14:06:43.759Z,100995.48
2022-12-29T14:09:36.978Z,100984.52
2022-12-29T14:12:39.174Z,100993.73
2022-12-29T14:15:14.483Z,100991.72
2022-12-29T14:18:07.023Z,101004.69
2022-12-29T14:20:40.533Z,101006.12
2022-12-29T14:23:13.212Z,101008.44
2022-12-29T14:26:02.255Z,100997.92
2022-12-29T14:28:46.656Z,100998.84
2022-12-29T14:31:22.835Z,100991.66
2022-12-29T14:34:10.286Z,100989.18
2022-12-29T14:37:06.441Z,100990.85
2022-12-29T14:39:49.053Z,100997.85
2022-12-29T14:42:27.058Z,100997.80
2022-12-29T14:45:31.816Z,100991.83
2022-12-29T14:48:25.110Z,100987.66
2022-12-29T14:50:58.811Z,100972.05
2022-12-29T14:53:47.078Z,100971.78
2022-12-29T14:56:27.658Z,100990.02
2022-12-29T14:59:05.523Z,100995.34
2022-12-29T15:01:53.146Z,100997.99
2022-12-29T15:04:38.526Z,100997.69
2022-12-29T15:07:15.627Z,100995.61
2022-12-29T15:09:58.178Z,100994.14
2022-12-29T15:12:53.102Z,100991.67
2022-12-29T15:15:31.251Z,100993.00
2022-12-29T15:18:23.217Z,100988.85
2022-12-29T15:20:59.806Z,100970.95
2022-12-29T15:23:35.459Z,100973.05
2022-12-29T15:26:10.808Z,100975.66
2022-12-29T15:28:49.214Z,100977.98
2022-12-29T15:31:30.583Z,100967.82
2022-12-29T15:34:15.370Z,100975.44
2022-12-29T15:36:52.843Z,100973.59
2022-12-29T15:39:37.634Z,100962.64
2022-12-29T15:42:38.940Z,100976.98
2022-12-29T15:45:16.488Z,100972.86
2022-12-29T15:47:52.590Z,100970.54
2022-12-29T15:50:34.319Z,100974.38
2022-12-29T15:53:12.768Z,100977.84
2022-12-29T15:55:49.351Z,100983.75
2022-12-29T15:58:32.018Z,100985.06
2022-12-29T16:01:05.696Z,100985.40
2022-12-29T16:03:40.619Z,100968.52
2022-12-29T16:06:29.833Z,100972.18
2022-12-29T16:09:05.341Z,100988.30
2022-12-29T16:11:44.599Z,100994.08
2022-12-29T16:14:32.595Z,100997.81
2022-12-29T16:17:06.819Z,100998.51
2022-12-29T16:19:44.259Z,100993.11
2022-12-29T16:22:29.105Z,100979.29
2022-12-29T16:25:13.933Z,100963.83
2022-12-29T16:27:47.589Z,100964.64
2022-12-29T16:30:35.054Z,100950.80
2022-12-29T16:33:09.882Z,100983.05
2022-12-29T16:35:46.042Z,100979.77
2022-12-29T16:38:23.014Z,100973.29
2022-12-29T16:41:05.566Z,100971.00
2022-12-29T16:43:44.327Z,100969.77
2022-12-29T16:46:31.695Z,100970.26
2022-12-29T16:49:04.863Z,100954.61
2022-12-29T16:51:41.794Z,100947.48
2022-12-29T16:54:41.999Z,100960.11
2022-12-29T16:57:15.723Z,100953.04
2022-12-29T16:59:54.669Z,100945.23
2022-12-29T17:02:30.775Z,100945.95
2022-12-29T17:05:04.458Z,100953.96
2022-12-29T17:07:43.104Z,100948.63
2022-12-29T17:10:17.071Z,100940.42
2022-12-29T17:12:51.508Z,100956.84
2022-12-29T17:15:35.697Z,100956.39
2022-12-29T17:18:13.825Z,100954.02
2022-12-29T17:20:47.625Z,100947.63
2022-12-29T17:23:26.401Z,100947.91
2022-12-29T17:26:02.118Z,100927.12
2022-12-29T17:28:36.210Z,100948.61
2022-12-29T17:31:11.412Z,100933.66
2022-12-29T17:33:44.258Z,100943.35
2022-12-29T17:36:17.369Z,100941.41
2022-12-29T17:38:50.417Z,100940.86
2022-12-29T17:41:23.744Z,100943.30
2022-12-29T17:43:56.827Z,100940.48
2022-12-29T17:46:29.864Z,100945.01
2022-12-29T17:49:04.171Z,100948.11
2022-12-29T17:51:37.390Z,100949.54
2022-12-29T17:54:18.923Z,100951.71
2022-12-29T17:56:51.987Z,100948.36
2022-12-29T17:59:24.940Z,100944.42
2022-12-29T18:01:58.465Z,100942.98
2022-12-29T18:04:31.490Z,100926.20
2022-12-29T18:07:04.294Z,100914.45
2022-12-29T18:09:37.208Z,100941.78
2022-12-29T18:12:26.775Z,100945.30
2022-12-29T18:14:59.479Z,100948.42
2022-12-29T18:17:32.234Z,100944.11
2022-12-29T18:20:04.816Z,100924.96
2022-12-29T18:22:37.838Z,100919.26
2022-12-29T18:25:33.257Z,100927.33
2022-12-29T18:28:05.872Z,100942.02
2022-12-29T18:30:39.654Z,100925.73
2022-12-29T18:33:26.220Z,100926.52
2022-12-29T18:36:08.451Z,100939.13
2022-12-29T18:38:41.045Z,100930.98
2022-12-29T18:41:22.514Z,100924.42
2022-12-29T18:43:55.509Z,100928.41
2022-12-29T18:46:28.305Z,100926.23
2022-12-29T18:49:01.089Z,100924.11
2022-12-29T18:51:37.736Z,100928.58
2022-12-29T18:54:27.439Z,100924.38
2022-12-29T18:57:00.753Z,100927.30
2022-12-29T18:59:34.162Z,100935.62
2022-12-29T19:02:07.205Z,100934.28
2022-12-29T19:04:39.925Z,100934.23
2022-12-29T19:07:12.826Z,100933.95
2022-12-29T19:09:45.386Z,100932.42
2022-12-29T19:12:22.202Z,100935.50
2022-12-29T19:14:59.212Z,100924.29
2022-12-29T19:17:32.758Z,100929.77
2022-12-29T19:20:05.761Z,100939.15
2022-12-29T19:22:38.411Z,100927.20
2022-12-29T19:25:11.450Z,100941.84
2022-12-29T19:27:44.180Z,100929.15
2022-12-29T19:30:17.335Z,100924.30
2022-12-29T19:32:54.386Z,100943.50
2022-12-29T19:35:29.426Z,100941.20
2022-12-29T19:38:02.190Z,100936.27
2022-12-29T19:40:35.563Z,100925.80
2022-12-29T19:43:09.914Z,100934.36
2022-12-29T19:45:46.681Z,100935.73
2022-12-29T19:48:21.390Z,100934.69
2022-12-29T19:50:54.767Z,100931.20
2022-12-29T19:53:27.419Z,100927.04
2022-12-29T19:56:03.920Z,100929.39
2022-12-29T19:58:43.903Z,100912.20
2022-12-29T20:01:24.556Z,100914.54
2022-12-29T20:03:57.214Z,100932.54
2022-12-29T20:06:30.287Z,100932.09
2022-12-29T20:09:04.872Z,100933.90
2022-12-29T20:11:38.154Z,100934.27
2022-12-29T20:14:11.212Z,100939.41
2022-12-29T20:17:08.959Z,100944.39
2022-12-29T20:19:40.535Z,100933.29
2022-12-29T20:22:13.883Z,100939.64
2022-12-29T20:25:53.554Z,100937.19
2022-12-29T20:27:41.851Z,100935.80
2022-12-29T20:30:15.076Z,100931.55
2022-12-29T20:32:48.038Z,100936.27
2022-12-29T20:35:21.090Z,100934.23
2022-12-29T20:37:54.160Z,100918.55
2022-12-29T20:40:26.942Z,100919.88
2022-12-29T20:43:00.697Z,100934.27
2022-12-29T20:45:34.064Z,100941.88
2022-12-29T20:48:07.085Z,100942.17
2022-12-29T20:50:39.867Z,100942.83
2022-12-29T20:53:14.027Z,100945.77
2022-12-29T20:55:46.751Z,100949.41
2022-12-29T20:58:23.956Z,100953.04
2022-12-29T21:01:02.346Z,100953.48
2022-12-29T21:03:35.422Z,100955.28
2022-12-29T21:06:09.885Z,100940.04
2022-12-29T21:08:42.927Z,100934.16
2022-12-29T21:11:15.724Z,100916.73
2022-12-29T21:13:48.523Z,100927.29
2022-12-29T21:16:22.839Z,100928.64
2022-12-29T21:18:55.852Z,100930.16
2022-12-29T21:21:29.207Z,100922.34
2022-12-29T21:24:06.573Z,100938.71
2022-12-29T21:26:39.181Z,100940.36
2022-12-29T21:29:12.205Z,100934.28
2022-12-29T21:31:46.314Z,100913.48
2022-12-29T21:34:19.180Z,100927.02
2022-12-29T21:36:52.070Z,100923.95
2022-12-29T21:39:25.220Z,100913.92
2022-12-29T21:42:00.640Z,100914.31
2022-12-29T21:44:51.452Z,100923.70
2022-12-29T21:47:24.430Z,100924.06
2022-12-29T21:49:57.499Z,100923.73
2022-12-29T21:52:31.009Z,100927.40
2022-12-29T21:55:05.425Z,100931.44
2022-12-29T21:57:57.325Z,100933.35
2022-12-29T22:00:48.880Z,100936.05
2022-12-29T22:03:40.382Z,100937.75
2022-12-29T22:06:32.809Z,100935.18
2022-12-29T22:09:23.884Z,100929.16
2022-12-29T22:12:15.399Z,100922.39
2022-12-29T22:14:48.517Z,100919.65
2022-12-29T22:17:26.259Z,100918.82
2022-12-29T22:20:03.301Z,100918.83
2022-12-29T22:22:36.841Z,100916.59
2022-12-29T22:25:10.937Z,100906.84
2022-12-29T22:27:44.072Z,100913.98
2022-12-29T22:30:17.698Z,100914.31
2022-12-29T22:32:50.596Z,100908.36
2022-12-29T22:35:25.444Z,100906.95
2022-12-29T22:37:59.017Z,100902.71
2022-12-29T22:40:32.410Z,100906.88
2022-12-29T22:43:11.083Z,100900.09
2022-12-29T22:45:46.224Z,100895.52
2022-12-29T22:48:18.700Z,100907.13
2022-12-29T22:50:52.465Z,100912.53
2022-12-29T22:53:25.570Z,100913.75
2022-12-29T22:56:13.167Z,100909.56
2022-12-29T22:58:47.443Z,100903.68
2022-12-29T23:01:23.074Z,100901.11
2022-12-29T23:04:10.938Z,100911.58
2022-12-29T23:06:50.662Z,100895.64
2022-12-29T23:09:24.364Z,100897.32
2022-12-29T23:11:57.026Z,100902.55
2022-12-29T23:14:30.025Z,100889.29
2022-12-29T23:17:03.102Z,100894.44
2022-12-29T23:19:36.256Z,100908.02
2022-12-29T23:22:09.347Z,100911.50
2022-12-29T23:24:42.205Z,100908.85
2022-12-29T23:27:15.224Z,100915.10
2022-12-29T23:29:47.770Z,100899.59
2022-12-29T23:32:21.288Z,100907.88
2022-12-29T23:34:54.498Z,100892.53
2022-12-29T23:37:27.699Z,100907.83
2022-12-29T23:40:00.802Z,100909.22
2022-12-29T23:42:33.701Z,100882.95
2022-12-29T23:45:07.328Z,100890.29
2022-12-29T23:47:40.169Z,100897.98
2022-12-29T23:50:12.814Z,100889.31
2022-12-29T23:52:45.362Z,100876.30
2022-12-29T23:55:18.423Z,100891.44
2022-12-29T23:57:51.291Z,100889.38
